LGHI/JKH METAR and TAF weather

Enter ICAO airport designator
Station Type Date Time Source
LGHI METAR 2019/10/23 19:50 UTC NOAA

LGHI 231950Z 02014KT CAVOK 22/13 Q1015


Station Type Date Time Source
LGHI Decoded METAR 2019/10/23 19:50 UTC NOAA

Chios Airport , Greece (LGHI) 38-20N 026-08E 4M
Oct 23, 2019 - 03:50 PM EDT / 2019.10.23 1950 UTC
Wind: from the NNE (020 degrees) at 16 MPH (14 KT):0
Visibility: greater than 7 mile(s):0
Temperature: 71 F (22 C)
Dew Point: 55 F (13 C)
Relative Humidity: 56%
Pressure (altimeter): 29.97 in. Hg (1015 hPa)
ob: LGHI 231950Z 02014KT CAVOK 22/13 Q1015
cycle: 20

Station Type Date Time Source
LGHI TAF 2012/09/21 03:06 UTC NOAA

TAF TAF LGHI 210200Z 2103/2115 VRB05KT 9999 SCT020 PROB30
TEMPO 2103/2106 7000 RA SCT018 BKN030
BECMG 2103/2105 30018KT

Example: see airport list